Time;durP1;ratioP1;P1;durP2;ratioP2;P2;SDS_P1;SDS_P2;PMS_P1;PMS_P2;Temp;Humidity;BMP_temperature;BMP_pressure;BME280_temperature;BME280_humidity;BME280_pressure;Samples;Min_cycle;Max_cycle;Signal;HPM_P1;HPM_P2
2021/03/30 08:25:36;;;;;;;1999.90;999.90;;;9.70;99.90;;;;;;6160868;23;20023;31
2021/03/30 08:28:09;;;;;;;1999.90;999.90;;;9.80;99.90;;;;;;6159602;23;20029;-95
2021/03/30 08:30:55;;;;;;;1999.90;999.90;;;9.90;99.90;;;;;;6159886;23;20025;-95
2021/03/30 08:48:16;;;;;;;1999.90;999.90;;;10.60;99.90;;;;;;6025020;23;20030;-96
2021/03/30 08:54:25;;;;;;;1999.90;999.90;;;10.90;99.90;;;;;;6018775;23;20038;-95
2021/03/30 08:57:00;;;;;;;1999.90;999.90;;;11.00;99.90;;;;;;6040782;23;20024;-95
2021/03/30 08:59:29;;;;;;;1999.90;999.90;;;11.00;99.90;;;;;;6040583;23;20027;-95
2021/03/30 09:02:06;;;;;;;1999.90;999.90;;;11.20;99.80;;;;;;6040961;23;20023;-96
2021/03/30 09:04:37;;;;;;;1999.90;999.90;;;11.40;98.40;;;;;;6041089;23;20071;-96
2021/03/30 09:07:10;;;;;;;1999.90;999.90;;;11.50;98.40;;;;;;6041505;23;20023;-96
2021/03/30 09:09:39;;;;;;;1999.90;999.90;;;11.60;97.50;;;;;;6040792;23;20547;-95
2021/03/30 09:12:22;;;;;;;1999.90;999.90;;;11.80;97.20;;;;;;6040096;23;20027;-95
2021/03/30 09:15:03;;;;;;;1999.90;999.90;;;11.90;97.00;;;;;;6040515;23;20019;-96
2021/03/30 09:26:17;;;;;;;1999.90;999.90;;;12.30;96.50;;;;;;6173866;22;20031;-95
2021/03/30 09:28:46;;;;;;;1999.90;999.90;;;12.50;96.00;;;;;;6219315;23;20028;-95
2021/03/30 09:31:14;;;;;;;1999.90;999.90;;;12.60;96.00;;;;;;6218854;23;20024;-95
2021/03/30 09:33:46;;;;;;;1999.90;999.90;;;12.70;95.40;;;;;;6219028;23;20044;-95
2021/03/30 09:36:15;;;;;;;1999.90;999.90;;;12.70;95.30;;;;;;6218630;23;20020;-95
2021/03/30 09:38:51;;;;;;;1999.90;999.90;;;12.80;95.60;;;;;;6218683;23;20031;-95
2021/03/30 09:41:41;;;;;;;1999.90;999.90;;;12.90;95.30;;;;;;6219130;23;20031;-96
2021/03/30 09:48:00;;;;;;;1999.90;999.90;;;13.10;94.90;;;;;;6182135;23;20087;-96
2021/03/30 09:51:11;;;;;;;1999.90;999.90;;;13.20;94.80;;;;;;6217709;23;20052;-96
2021/03/30 09:53:44;;;;;;;1999.90;999.90;;;13.30;94.30;;;;;;6219160;23;20025;-96
2021/03/30 11:19:11;;;;;;;1999.90;999.90;;;17.70;70.10;;;;;;6147271;23;20047;-96
2021/03/30 11:33:30;;;;;;;1999.90;999.90;;;18.20;67.10;;;;;;6172684;22;20036;-96
2021/03/30 11:41:31;;;;;;;1999.90;999.90;;;18.60;66.80;;;;;;6208400;22;20031;-96
2021/03/30 12:34:34;;;;;;;;;;;;;;;;;;;;;
2021/03/30 13:29:51;;;;;;;1999.90;999.90;;;23.50;54.50;;;;;;6190135;23;20090;-95
2021/03/30 13:32:19;;;;;;;1999.90;999.90;;;23.80;50.80;;;;;;6188909;23;20051;-96
2021/03/30 13:34:48;;;;;;;1999.90;999.90;;;23.90;46.00;;;;;;6189540;23;20028;-96
2021/03/30 13:37:16;;;;;;;1999.90;999.90;;;24.00;47.40;;;;;;6190069;23;20052;-95
2021/03/30 13:39:47;;;;;;;1999.90;999.90;;;24.10;48.60;;;;;;6189846;23;20024;-96
2021/03/30 13:42:18;;;;;;;1999.90;999.90;;;24.20;49.50;;;;;;6190072;23;20060;-96
2021/03/30 13:44:45;;;;;;;1999.90;999.90;;;24.30;48.10;;;;;;6194848;23;20025;-96
2021/03/30 13:47:13;;;;;;;1999.90;999.90;;;24.30;43.70;;;;;;6189192;23;20028;-96
2021/03/30 13:49:41;;;;;;;1999.90;999.90;;;24.40;48.10;;;;;;6191015;23;20051;-96
2021/03/30 13:52:09;;;;;;;1999.90;999.90;;;24.50;48.30;;;;;;6190640;23;20425;-96
2021/03/30 13:54:36;;;;;;;1999.90;999.90;;;24.60;45.50;;;;;;6189641;23;20027;-96
2021/03/30 13:57:39;;;;;;;1999.90;999.90;;;24.70;47.10;;;;;;6190302;23;20028;-96
2021/03/30 14:00:23;;;;;;;1999.90;999.90;;;24.90;45.00;;;;;;6142231;23;20543;-96
2021/03/30 14:02:56;;;;;;;1999.90;999.90;;;24.80;45.50;;;;;;6192134;23;20511;-96
2021/03/30 14:05:24;;;;;;;1999.90;999.90;;;24.90;48.10;;;;;;6188856;23;20024;-96
2021/03/30 14:07:51;;;;;;;1999.90;999.90;;;25.20;48.80;;;;;;6188380;23;20025;-96
2021/03/30 14:10:20;;;;;;;1999.90;999.90;;;25.40;47.90;;;;;;6188503;23;20032;-96
2021/03/30 14:12:58;;;;;;;1999.90;999.90;;;25.50;49.30;;;;;;6189184;23;20025;-96
2021/03/30 14:15:39;;;;;;;1999.90;999.90;;;25.50;45.10;;;;;;6190061;23;20433;-95
2021/03/30 14:18:17;;;;;;;1999.90;999.90;;;25.30;43.10;;;;;;6189881;23;20025;-96
2021/03/30 14:20:55;;;;;;;1999.90;999.90;;;25.30;45.10;;;;;;6189050;23;20059;-95
2021/03/30 14:27:10;;;;;;;1999.90;999.90;;;25.60;43.90;;;;;;6220830;23;20513;-93
2021/03/30 14:29:59;;;;;;;1999.90;999.90;;;25.70;43.30;;;;;;6220522;23;20025;-95
2021/03/30 14:32:43;;;;;;;1999.90;999.90;;;25.70;42.80;;;;;;6219549;23;20467;-95
2021/03/30 14:35:13;;;;;;;1999.90;999.90;;;25.60;43.20;;;;;;6218318;23;20463;-95
2021/03/30 14:37:41;;;;;;;1999.90;999.90;;;25.60;44.00;;;;;;6218182;23;20107;-95
2021/03/30 14:40:15;;;;;;;1999.90;999.90;;;25.60;43.90;;;;;;6218744;23;20075;-95
2021/03/30 14:42:51;;;;;;;1999.90;999.90;;;25.70;44.80;;;;;;6219270;23;20041;-95
2021/03/30 14:51:59;;;;;;;1999.90;999.90;;;25.80;43.80;;;;;;6222200;23;20025;-95
2021/03/30 14:54:28;;;;;;;1999.90;999.90;;;26.00;45.30;;;;;;6218053;23;20028;-96
2021/03/30 15:14:40;;;;;;;1999.90;999.90;;;26.60;44.50;;;;;;6106682;23;20069;-96
2021/03/30 15:18:15;;;;;;;;;;;;;;;;;;;;;
2021/03/30 15:32:45;;;;;;;1999.90;999.90;;;27.60;45.90;;;;;;6081493;23;20098;-96
2021/03/30 15:35:38;;;;;;;1999.90;999.90;;;27.60;43.60;;;;;;6170680;23;20025;-96
2021/03/30 15:38:13;;;;;;;1999.90;999.90;;;27.70;45.80;;;;;;6186719;23;20029;-96
2021/03/30 15:56:56;;;;;;;1999.90;999.90;;;27.60;42.60;;;;;;6058179;23;20030;-96
2021/03/30 15:59:38;;;;;;;1999.90;999.90;;;27.80;40.60;;;;;;6090353;23;20089;-96
2021/03/30 16:02:45;;;;;;;1999.90;999.90;;;27.90;43.10;;;;;;6126225;23;20469;-96
2021/03/30 16:28:09;;;;;;;1999.90;999.90;;;28.90;41.50;;;;;;6121783;23;20153;-96
2021/03/30 16:34:52;;;;;;;1999.90;999.90;;;28.90;40.10;;;;;;6141332;23;20032;-96
2021/03/30 16:37:39;;;;;;;1999.90;999.90;;;29.00;39.10;;;;;;6201495;23;20045;-96
2021/03/30 16:40:22;;;;;;;1999.90;999.90;;;29.20;41.00;;;;;;6198734;23;20037;-96
2021/03/30 16:43:16;;;;;;;1999.90;999.90;;;29.20;39.50;;;;;;6190869;23;20310;-96
2021/03/30 16:46:10;;;;;;;1999.90;999.90;;;29.20;39.50;;;;;;6170923;23;20048;-96
2021/03/30 16:49:09;;;;;;;1999.90;999.90;;;29.10;39.30;;;;;;6192536;23;20337;-96
2021/03/30 17:12:14;;;;;;;1999.90;999.90;;;25.70;42.90;;;;;;6004292;24;20057;-96
2021/03/30 17:19:32;;;;;;;;;;;25.10;44.20;;;;;;5973088;23;20012;-96
2021/03/30 17:57:23;;;;;;;1999.90;999.90;;;20.70;52.10;;;;;;6090854;23;20026;-96
2021/03/30 18:00:12;;;;;;;1999.90;999.90;;;20.50;54.10;;;;;;6105309;23;20022;-96
2021/03/30 18:03:19;;;;;;;1999.90;999.90;;;20.20;53.50;;;;;;6105246;23;20027;-96
2021/03/30 18:14:08;;;;;;;1999.90;999.90;;;19.60;55.60;;;;;;6013322;23;20060;-96
2021/03/30 18:32:00;;;;;;;1999.90;999.90;;;18.50;58.80;;;;;;5928973;24;20020;-96
2021/03/30 18:38:54;;;;;;;1999.90;999.90;;;18.10;59.40;;;;;;5972270;23;20055;-96
2021/03/30 18:41:33;;;;;;;1999.90;999.90;;;17.90;60.00;;;;;;6017616;23;20571;-96
2021/03/30 18:44:20;;;;;;;1999.90;999.90;;;17.80;61.30;;;;;;6018504;23;20268;-96
2021/03/30 18:46:59;;;;;;;1999.90;999.90;;;17.60;61.10;;;;;;6017829;23;20020;-96
2021/03/30 18:49:48;;;;;;;1999.90;999.90;;;17.50;62.10;;;;;;6017899;23;20132;-96
2021/03/30 18:52:49;;;;;;;1999.90;999.90;;;17.40;62.60;;;;;;6017423;23;20032;-96
2021/03/30 18:56:12;;;;;;;1999.90;999.90;;;17.20;62.60;;;;;;6015575;23;20028;-96
2021/03/30 19:06:38;;;;;;;1999.90;999.90;;;16.70;64.80;;;;;;5846410;24;20161;-96
2021/03/30 19:09:10;;;;;;;1999.90;999.90;;;16.60;65.70;;;;;;5896010;24;20029;-96
2021/03/30 19:12:00;;;;;;;1999.90;999.90;;;16.40;65.90;;;;;;5969680;23;20028;-96
2021/03/30 19:14:42;;;;;;;1999.90;999.90;;;16.30;66.50;;;;;;5977074;24;20024;-96
2021/03/30 19:18:00;;;;;;;1999.90;999.90;;;16.20;67.40;;;;;;5986074;24;20020;-96
2021/03/30 19:23:52;;;;;;;1999.90;999.90;;;16.00;69.00;;;;;;6058986;23;20026;-96
2021/03/30 19:27:05;;;;;;;1999.90;999.90;;;15.80;69.80;;;;;;6101226;23;20184;-96
2021/03/30 19:33:30;;;;;;;1999.90;999.90;;;15.60;71.40;;;;;;5999689;23;20486;-96
2021/03/30 19:36:22;;;;;;;1999.90;999.90;;;15.50;72.50;;;;;;6010097;23;20096;-96
2021/03/30 19:39:14;;;;;;;1999.90;999.90;;;15.40;73.50;;;;;;6126674;23;20026;-95
2021/03/30 19:41:43;;;;;;;1999.90;999.90;;;15.30;74.10;;;;;;6126448;23;20105;-96
2021/03/30 19:44:18;;;;;;;1999.90;999.90;;;15.20;75.00;;;;;;6126384;23;20022;-96
2021/03/30 19:47:00;;;;;;;;;;;15.20;76.20;;;;;;6126736;23;20033;-96
2021/03/30 19:50:05;;;;;;;1999.90;999.90;;;15.10;77.00;;;;;;6126556;23;19923;-95
2021/03/30 19:52:53;;;;;;;1999.90;999.90;;;14.90;77.70;;;;;;6126316;23;20029;-95
2021/03/30 19:55:25;;;;;;;1999.90;999.90;;;14.90;78.90;;;;;;6126481;23;20515;-95
2021/03/30 19:57:55;;;;;;;1999.90;999.90;;;14.80;78.00;;;;;;6126901;23;20029;-95
2021/03/30 20:00:32;;;;;;;1999.90;999.90;;;14.70;78.10;;;;;;6127429;23;20045;-95
2021/03/30 20:03:38;;;;;;;1999.90;999.90;;;14.70;79.00;;;;;;6126331;23;20045;-95
2021/03/30 20:06:08;;;;;;;1999.90;999.90;;;14.60;80.80;;;;;;6126582;23;20024;-94
2021/03/30 20:08:44;;;;;;;1999.90;999.90;;;14.50;81.50;;;;;;6126885;23;20033;-95
2021/03/30 20:11:23;;;;;;;1999.90;999.90;;;14.50;82.30;;;;;;6126186;23;20096;-95
2021/03/30 20:13:53;;;;;;;1999.90;999.90;;;14.50;82.50;;;;;;6125960;23;20044;-94
2021/03/30 20:16:36;;;;;;;1999.90;999.90;;;14.40;83.10;;;;;;6126570;23;20022;-94
2021/03/30 20:19:06;;;;;;;1999.90;999.90;;;14.30;83.90;;;;;;6126296;23;20032;-94
2021/03/30 20:21:33;;;;;;;1999.90;999.90;;;14.30;85.40;;;;;;6126158;23;20025;-94
2021/03/30 20:24:07;;;;;;;1999.90;999.90;;;14.20;86.10;;;;;;6126353;23;20477;-95
2021/03/30 20:26:35;;;;;;;1999.90;999.90;;;14.10;86.10;;;;;;6127735;23;20026;-95
2021/03/30 20:29:02;;;;;;;1999.90;999.90;;;14.10;87.00;;;;;;6128570;23;20074;-94
2021/03/30 20:31:37;;;;;;;1999.90;999.90;;;14.00;85.70;;;;;;6128760;23;20104;-95
2021/03/30 20:34:08;;;;;;;1999.90;999.90;;;13.90;87.10;;;;;;6129188;23;20030;-95
2021/03/30 20:36:41;;;;;;;1999.90;999.90;;;13.90;88.90;;;;;;6128240;23;20022;-95
2021/03/30 20:39:15;;;;;;;1999.90;999.90;;;13.80;90.00;;;;;;6127928;23;20442;-94
2021/03/30 20:41:44;;;;;;;1999.90;999.90;;;13.70;90.10;;;;;;6136812;23;20054;-95
2021/03/30 20:44:16;;;;;;;1999.90;999.90;;;13.70;90.60;;;;;;6143272;23;20026;-95
2021/03/30 20:52:49;;;;;;;1999.90;999.90;;;13.50;91.20;;;;;;6125527;23;20029;-96
2021/03/30 20:55:54;;;;;;;1999.90;999.90;;;13.40;91.50;;;;;;6130195;23;20029;-96
2021/03/30 20:58:31;;;;;;;1999.90;999.90;;;13.40;91.70;;;;;;6126820;23;20077;-96
2021/03/30 21:01:05;;;;;;;1999.90;999.90;;;13.30;91.90;;;;;;6126012;23;20026;-96
2021/03/30 21:03:41;;;;;;;1999.90;999.90;;;13.20;92.00;;;;;;6125367;23;20033;-96
2021/03/30 21:06:31;;;;;;;1999.90;999.90;;;13.20;92.20;;;;;;6125961;23;20021;-96
2021/03/30 21:08:58;;;;;;;1999.90;999.90;;;13.10;92.50;;;;;;6117222;23;20026;-96
2021/03/30 21:11:34;;;;;;;1999.90;999.90;;;13.00;92.60;;;;;;6125860;23;20093;-95
2021/03/30 21:14:23;;;;;;;1999.90;999.90;;;13.00;92.90;;;;;;6125429;23;20030;-96
2021/03/30 21:17:10;;;;;;;1999.90;999.90;;;12.90;93.20;;;;;;6122321;23;20047;-96
2021/03/30 21:19:39;;;;;;;1999.90;999.90;;;12.80;93.50;;;;;;6126150;23;20026;-95
2021/03/30 21:25:37;;;;;;;1999.90;999.90;;;12.70;93.80;;;;;;6085354;23;20032;-95
2021/03/30 21:28:15;;;;;;;1999.90;999.90;;;12.70;94.00;;;;;;6127703;23;20029;-95
2021/03/30 21:31:15;;;;;;;1999.90;999.90;;;12.60;94.20;;;;;;6127784;23;20029;-96
2021/03/30 21:34:12;;;;;;;1999.90;999.90;;;12.50;94.40;;;;;;6127740;23;20089;-96
2021/03/30 21:37:16;;;;;;;1999.90;999.90;;;12.40;94.50;;;;;;6119439;23;20028;-96
2021/03/30 21:40:31;;;;;;;1999.90;999.90;;;12.40;94.80;;;;;;6127670;23;20442;-96
2021/03/30 21:43:30;;;;;;;1999.90;999.90;;;12.30;94.90;;;;;;6122162;23;20025;-96
2021/03/30 21:46:20;;;;;;;1999.90;999.90;;;12.30;95.00;;;;;;6127185;23;20164;-95
2021/03/30 21:52:34;;;;;;;1999.90;999.90;;;12.10;95.30;;;;;;5983898;23;20129;-96
2021/03/30 21:55:21;;;;;;;1999.90;999.90;;;12.00;95.50;;;;;;5983781;24;20036;-96
2021/03/30 21:58:22;;;;;;;1999.90;999.90;;;12.00;95.70;;;;;;5985333;24;20035;-94
2021/03/30 22:01:13;;;;;;;1999.90;999.90;;;11.90;95.90;;;;;;6083738;23;20032;-94
2021/03/30 22:04:06;;;;;;;1999.90;999.90;;;11.90;96.00;;;;;;6140238;23;20022;-94
2021/03/30 22:10:06;;;;;;;1999.90;999.90;;;11.70;96.20;;;;;;6127462;23;20030;-95
2021/03/30 22:13:22;;;;;;;1999.90;999.90;;;11.70;96.40;;;;;;6128245;23;20069;-94
2021/03/30 22:23:33;;;;;;;;;;;;;;;;;;;;;
2021/03/30 22:30:12;;;;;;;1999.90;999.90;;;11.40;96.90;;;;;;6127794;23;20042;-95
2021/03/30 22:40:38;;;;;;;1999.90;999.90;;;11.20;97.40;;;;;;5959649;24;20058;-94
2021/03/30 22:43:19;;;;;;;1999.90;999.90;;;11.10;97.50;;;;;;6064115;23;20027;-95
2021/03/30 22:46:06;;;;;;;1999.90;999.90;;;11.10;97.60;;;;;;6068979;23;20030;-94
2021/03/30 22:53:17;;;;;;;1999.90;999.90;;;11.00;97.80;;;;;;6012121;23;20417;-94
2021/03/30 22:56:08;;;;;;;1999.90;999.90;;;10.90;97.90;;;;;;6012226;23;20027;-95
2021/03/30 22:59:11;;;;;;;1999.90;999.90;;;10.90;98.00;;;;;;6048599;23;20046;-95
2021/03/30 23:02:15;;;;;;;1999.90;999.90;;;10.80;98.10;;;;;;6068792;23;20030;-95
2021/03/30 23:05:06;;;;;;;1999.90;999.90;;;10.80;98.20;;;;;;6068095;23;20022;-94
2021/03/30 23:08:01;;;;;;;1999.90;999.90;;;10.80;98.30;;;;;;6028952;23;20050;-94
2021/03/30 23:11:12;;;;;;;1999.90;999.90;;;10.70;98.30;;;;;;6011064;23;20078;-95
2021/03/30 23:14:13;;;;;;;1999.90;999.90;;;10.70;98.50;;;;;;6126084;23;20058;-95
2021/03/30 23:20:33;;;;;;;1999.90;999.90;;;10.60;98.60;;;;;;6127286;23;20101;-94
2021/03/30 23:23:24;;;;;;;1999.90;999.90;;;10.50;98.60;;;;;;6012355;23;20102;-94
2021/03/30 23:26:28;;;;;;;1999.90;999.90;;;10.50;98.70;;;;;;6011578;23;20024;-95
2021/03/30 23:29:40;;;;;;;1999.90;999.90;;;10.40;98.80;;;;;;6011195;23;20056;-95
2021/03/30 23:32:15;;;;;;;1999.90;999.90;;;10.40;98.90;;;;;;6011000;23;20028;-96
2021/03/30 23:34:53;;;;;;;1999.90;999.90;;;10.30;98.90;;;;;;6010495;23;20028;-95
2021/03/30 23:37:20;;;;;;;1999.90;999.90;;;10.40;99.10;;;;;;6011374;23;20515;-95
2021/03/30 23:39:48;;;;;;;1999.90;999.90;;;10.40;99.10;;;;;;6039975;23;20037;-94
2021/03/30 23:42:15;;;;;;;1999.90;999.90;;;10.30;99.10;;;;;;6137038;23;20030;-94
2021/03/30 23:44:58;;;;;;;1999.90;999.90;;;10.20;99.10;;;;;;6137023;23;20438;-95
2021/03/30 23:47:35;;;;;;;1999.90;999.90;;;10.20;99.30;;;;;;6128204;23;20114;-95
2021/03/30 23:50:24;;;;;;;1999.90;999.90;;;10.10;99.20;;;;;;6126443;23;20097;-94
2021/03/30 23:52:55;;;;;;;1999.90;999.90;;;10.10;99.30;;;;;;6126400;23;20193;-94
